sensor_id;sensor_type;location;lat;lon;timestamp;P1;durP1;ratioP1;P2;durP2;ratioP2
15555;SDS011;7879;48.660;9.116;2022-07-12T00:01:54;0.30;;;0.30;;
15555;SDS011;7879;48.660;9.116;2022-07-12T00:04:20;0.30;;;0.30;;
15555;SDS011;7879;48.660;9.116;2022-07-12T00:06:48;0.30;;;0.30;;
15555;SDS011;7879;48.660;9.116;2022-07-12T00:09:15;0.30;;;0.30;;
15555;SDS011;7879;48.660;9.116;2022-07-12T00:11:41;0.30;;;0.30;;
15555;SDS011;7879;48.660;9.116;2022-07-12T00:14:08;0.30;;;0.30;;
15555;SDS011;7879;48.660;9.116;2022-07-12T00:16:38;0.30;;;0.30;;
15555;SDS011;7879;48.660;9.116;2022-07-12T00:19:06;0.30;;;0.30;;
15555;SDS011;7879;48.660;9.116;2022-07-12T00:21:32;0.30;;;0.30;;
15555;SDS011;7879;48.660;9.116;2022-07-12T00:23:59;0.30;;;0.30;;
15555;SDS011;7879;48.660;9.116;2022-07-12T00:26:26;0.30;;;0.30;;
15555;SDS011;7879;48.660;9.116;2022-07-12T00:28:53;0.30;;;0.30;;
15555;SDS011;7879;48.660;9.116;2022-07-12T00:31:20;0.30;;;0.30;;
15555;SDS011;7879;48.660;9.116;2022-07-12T00:33:47;0.30;;;0.30;;
15555;SDS011;7879;48.660;9.116;2022-07-12T00:36:14;0.30;;;0.30;;
15555;SDS011;7879;48.660;9.116;2022-07-12T00:38:41;0.30;;;0.30;;
15555;SDS011;7879;48.660;9.116;2022-07-12T00:41:08;0.20;;;0.20;;
15555;SDS011;7879;48.660;9.116;2022-07-12T00:43:35;0.30;;;0.30;;
15555;SDS011;7879;48.660;9.116;2022-07-12T00:46:02;0.30;;;0.30;;
15555;SDS011;7879;48.660;9.116;2022-07-12T00:48:30;0.30;;;0.30;;
15555;SDS011;7879;48.660;9.116;2022-07-12T00:50:59;0.30;;;0.30;;
15555;SDS011;7879;48.660;9.116;2022-07-12T00:53:26;0.30;;;0.30;;
15555;SDS011;7879;48.660;9.116;2022-07-12T00:55:54;0.30;;;0.30;;
15555;SDS011;7879;48.660;9.116;2022-07-12T00:58:24;0.30;;;0.30;;
15555;SDS011;7879;48.660;9.116;2022-07-12T01:00:54;0.30;;;0.30;;
15555;SDS011;7879;48.660;9.116;2022-07-12T01:03:22;0.30;;;0.30;;
15555;SDS011;7879;48.660;9.116;2022-07-12T01:05:49;0.30;;;0.30;;
15555;SDS011;7879;48.660;9.116;2022-07-12T01:08:17;0.30;;;0.30;;
15555;SDS011;7879;48.660;9.116;2022-07-12T01:10:44;0.30;;;0.30;;
15555;SDS011;7879;48.660;9.116;2022-07-12T01:13:11;0.28;;;0.28;;
15555;SDS011;7879;48.660;9.116;2022-07-12T01:15:38;0.30;;;0.30;;
15555;SDS011;7879;48.660;9.116;2022-07-12T01:18:06;0.30;;;0.30;;
15555;SDS011;7879;48.660;9.116;2022-07-12T01:20:33;0.30;;;0.30;;
15555;SDS011;7879;48.660;9.116;2022-07-12T01:23:00;0.30;;;0.30;;
15555;SDS011;7879;48.660;9.116;2022-07-12T01:25:28;0.30;;;0.30;;
15555;SDS011;7879;48.660;9.116;2022-07-12T01:27:55;0.30;;;0.30;;
15555;SDS011;7879;48.660;9.116;2022-07-12T01:30:22;0.30;;;0.30;;
15555;SDS011;7879;48.660;9.116;2022-07-12T01:32:49;0.30;;;0.30;;
15555;SDS011;7879;48.660;9.116;2022-07-12T01:35:18;0.30;;;0.30;;
15555;SDS011;7879;48.660;9.116;2022-07-12T01:37:46;0.30;;;0.30;;
15555;SDS011;7879;48.660;9.116;2022-07-12T01:40:14;0.30;;;0.30;;
15555;SDS011;7879;48.660;9.116;2022-07-12T01:42:41;0.30;;;0.30;;
15555;SDS011;7879;48.660;9.116;2022-07-12T01:45:10;0.30;;;0.30;;
15555;SDS011;7879;48.660;9.116;2022-07-12T01:47:38;0.30;;;0.30;;
15555;SDS011;7879;48.660;9.116;2022-07-12T01:50:06;0.30;;;0.30;;
15555;SDS011;7879;48.660;9.116;2022-07-12T01:52:38;0.30;;;0.30;;
15555;SDS011;7879;48.660;9.116;2022-07-12T01:55:06;0.30;;;0.30;;
15555;SDS011;7879;48.660;9.116;2022-07-12T01:57:35;0.40;;;0.40;;
15555;SDS011;7879;48.660;9.116;2022-07-12T02:00:05;0.30;;;0.30;;
15555;SDS011;7879;48.660;9.116;2022-07-12T02:02:33;0.30;;;0.30;;
15555;SDS011;7879;48.660;9.116;2022-07-12T02:05:00;0.30;;;0.30;;
15555;SDS011;7879;48.660;9.116;2022-07-12T02:07:28;0.30;;;0.30;;
15555;SDS011;7879;48.660;9.116;2022-07-12T02:09:55;0.30;;;0.30;;
15555;SDS011;7879;48.660;9.116;2022-07-12T02:12:23;0.38;;;0.38;;
15555;SDS011;7879;48.660;9.116;2022-07-12T02:14:50;0.35;;;0.35;;
15555;SDS011;7879;48.660;9.116;2022-07-12T02:17:17;0.38;;;0.38;;
15555;SDS011;7879;48.660;9.116;2022-07-12T02:19:44;0.40;;;0.40;;
15555;SDS011;7879;48.660;9.116;2022-07-12T02:22:11;0.40;;;0.40;;
15555;SDS011;7879;48.660;9.116;2022-07-12T02:24:38;0.40;;;0.40;;
15555;SDS011;7879;48.660;9.116;2022-07-12T02:27:05;0.38;;;0.38;;
15555;SDS011;7879;48.660;9.116;2022-07-12T02:29:32;0.40;;;0.40;;
15555;SDS011;7879;48.660;9.116;2022-07-12T02:31:59;0.30;;;0.30;;
15555;SDS011;7879;48.660;9.116;2022-07-12T02:34:26;0.30;;;0.30;;
15555;SDS011;7879;48.660;9.116;2022-07-12T02:36:53;0.30;;;0.30;;
15555;SDS011;7879;48.660;9.116;2022-07-12T02:39:20;0.30;;;0.30;;
15555;SDS011;7879;48.660;9.116;2022-07-12T02:41:47;0.30;;;0.30;;
15555;SDS011;7879;48.660;9.116;2022-07-12T02:44:13;0.30;;;0.30;;
15555;SDS011;7879;48.660;9.116;2022-07-12T02:46:40;0.38;;;0.38;;
15555;SDS011;7879;48.660;9.116;2022-07-12T02:49:07;0.30;;;0.30;;
15555;SDS011;7879;48.660;9.116;2022-07-12T02:51:34;0.30;;;0.30;;
15555;SDS011;7879;48.660;9.116;2022-07-12T02:54:00;0.30;;;0.30;;
15555;SDS011;7879;48.660;9.116;2022-07-12T02:56:27;0.30;;;0.30;;
15555;SDS011;7879;48.660;9.116;2022-07-12T02:58:54;0.30;;;0.30;;
15555;SDS011;7879;48.660;9.116;2022-07-12T03:01:20;0.30;;;0.30;;
15555;SDS011;7879;48.660;9.116;2022-07-12T03:03:47;0.30;;;0.30;;
15555;SDS011;7879;48.660;9.116;2022-07-12T03:06:14;0.30;;;0.30;;
15555;SDS011;7879;48.660;9.116;2022-07-12T03:08:41;0.30;;;0.30;;
15555;SDS011;7879;48.660;9.116;2022-07-12T03:11:08;0.30;;;0.30;;
15555;SDS011;7879;48.660;9.116;2022-07-12T03:13:35;0.30;;;0.30;;
15555;SDS011;7879;48.660;9.116;2022-07-12T03:16:02;0.30;;;0.30;;
15555;SDS011;7879;48.660;9.116;2022-07-12T03:18:29;0.30;;;0.30;;
15555;SDS011;7879;48.660;9.116;2022-07-12T03:20:57;0.30;;;0.30;;
15555;SDS011;7879;48.660;9.116;2022-07-12T03:23:24;0.30;;;0.30;;
15555;SDS011;7879;48.660;9.116;2022-07-12T03:25:51;0.30;;;0.30;;
15555;SDS011;7879;48.660;9.116;2022-07-12T03:28:17;0.30;;;0.30;;
15555;SDS011;7879;48.660;9.116;2022-07-12T03:30:44;0.30;;;0.30;;
15555;SDS011;7879;48.660;9.116;2022-07-12T03:33:11;0.30;;;0.30;;
15555;SDS011;7879;48.660;9.116;2022-07-12T03:35:38;0.30;;;0.30;;
15555;SDS011;7879;48.660;9.116;2022-07-12T03:38:05;0.30;;;0.30;;
15555;SDS011;7879;48.660;9.116;2022-07-12T03:40:32;0.30;;;0.30;;
15555;SDS011;7879;48.660;9.116;2022-07-12T03:43:00;0.30;;;0.30;;
15555;SDS011;7879;48.660;9.116;2022-07-12T03:45:27;0.30;;;0.30;;
15555;SDS011;7879;48.660;9.116;2022-07-12T03:47:54;0.30;;;0.30;;
15555;SDS011;7879;48.660;9.116;2022-07-12T03:50:21;0.30;;;0.30;;
15555;SDS011;7879;48.660;9.116;2022-07-12T03:52:47;0.30;;;0.30;;
15555;SDS011;7879;48.660;9.116;2022-07-12T03:55:15;0.30;;;0.30;;
15555;SDS011;7879;48.660;9.116;2022-07-12T03:57:42;0.30;;;0.30;;
15555;SDS011;7879;48.660;9.116;2022-07-12T04:00:10;0.30;;;0.30;;
15555;SDS011;7879;48.660;9.116;2022-07-12T04:02:39;0.30;;;0.30;;
15555;SDS011;7879;48.660;9.116;2022-07-12T04:05:07;0.30;;;0.30;;
15555;SDS011;7879;48.660;9.116;2022-07-12T04:07:36;0.30;;;0.30;;
15555;SDS011;7879;48.660;9.116;2022-07-12T04:10:04;0.30;;;0.30;;
15555;SDS011;7879;48.660;9.116;2022-07-12T04:12:31;0.30;;;0.30;;
15555;SDS011;7879;48.660;9.116;2022-07-12T04:14:58;0.30;;;0.30;;
15555;SDS011;7879;48.660;9.116;2022-07-12T04:17:25;0.30;;;0.30;;
15555;SDS011;7879;48.660;9.116;2022-07-12T04:19:52;0.30;;;0.30;;
15555;SDS011;7879;48.660;9.116;2022-07-12T04:22:19;0.30;;;0.30;;
15555;SDS011;7879;48.660;9.116;2022-07-12T04:24:45;0.30;;;0.30;;
15555;SDS011;7879;48.660;9.116;2022-07-12T04:27:12;0.30;;;0.30;;
15555;SDS011;7879;48.660;9.116;2022-07-12T04:29:39;0.30;;;0.30;;
15555;SDS011;7879;48.660;9.116;2022-07-12T04:32:06;0.30;;;0.30;;
15555;SDS011;7879;48.660;9.116;2022-07-12T04:34:33;0.30;;;0.30;;
15555;SDS011;7879;48.660;9.116;2022-07-12T04:37:00;0.30;;;0.30;;
15555;SDS011;7879;48.660;9.116;2022-07-12T04:39:27;0.30;;;0.30;;
15555;SDS011;7879;48.660;9.116;2022-07-12T04:41:54;0.30;;;0.30;;
15555;SDS011;7879;48.660;9.116;2022-07-12T04:44:20;0.30;;;0.30;;
15555;SDS011;7879;48.660;9.116;2022-07-12T04:46:47;0.30;;;0.30;;
15555;SDS011;7879;48.660;9.116;2022-07-12T04:49:14;0.30;;;0.30;;
15555;SDS011;7879;48.660;9.116;2022-07-12T04:51:41;0.30;;;0.30;;
15555;SDS011;7879;48.660;9.116;2022-07-12T04:54:08;0.30;;;0.30;;
15555;SDS011;7879;48.660;9.116;2022-07-12T04:56:34;0.30;;;0.30;;
15555;SDS011;7879;48.660;9.116;2022-07-12T04:59:01;0.20;;;0.20;;
15555;SDS011;7879;48.660;9.116;2022-07-12T05:01:29;0.30;;;0.30;;
15555;SDS011;7879;48.660;9.116;2022-07-12T05:03:56;0.30;;;0.30;;
15555;SDS011;7879;48.660;9.116;2022-07-12T05:06:23;0.30;;;0.30;;
15555;SDS011;7879;48.660;9.116;2022-07-12T05:08:50;0.30;;;0.30;;
15555;SDS011;7879;48.660;9.116;2022-07-12T05:11:18;0.30;;;0.30;;
15555;SDS011;7879;48.660;9.116;2022-07-12T05:13:45;0.30;;;0.30;;
15555;SDS011;7879;48.660;9.116;2022-07-12T05:16:12;0.20;;;0.20;;
15555;SDS011;7879;48.660;9.116;2022-07-12T05:18:39;0.20;;;0.20;;
15555;SDS011;7879;48.660;9.116;2022-07-12T05:21:06;0.20;;;0.20;;
15555;SDS011;7879;48.660;9.116;2022-07-12T05:23:33;0.25;;;0.25;;
15555;SDS011;7879;48.660;9.116;2022-07-12T05:26:00;0.30;;;0.30;;
15555;SDS011;7879;48.660;9.116;2022-07-12T05:28:28;0.30;;;0.30;;
15555;SDS011;7879;48.660;9.116;2022-07-12T05:30:55;0.30;;;0.30;;
15555;SDS011;7879;48.660;9.116;2022-07-12T05:33:22;0.20;;;0.20;;
15555;SDS011;7879;48.660;9.116;2022-07-12T05:35:50;0.20;;;0.20;;
15555;SDS011;7879;48.660;9.116;2022-07-12T05:38:17;0.20;;;0.20;;
15555;SDS011;7879;48.660;9.116;2022-07-12T05:40:44;0.20;;;0.20;;
15555;SDS011;7879;48.660;9.116;2022-07-12T05:43:11;0.20;;;0.20;;
15555;SDS011;7879;48.660;9.116;2022-07-12T05:45:40;0.20;;;0.20;;
15555;SDS011;7879;48.660;9.116;2022-07-12T05:48:08;0.20;;;0.20;;
15555;SDS011;7879;48.660;9.116;2022-07-12T05:50:34;0.20;;;0.20;;
15555;SDS011;7879;48.660;9.116;2022-07-12T05:53:01;0.20;;;0.20;;
15555;SDS011;7879;48.660;9.116;2022-07-12T05:55:47;0.20;;;0.20;;
15555;SDS011;7879;48.660;9.116;2022-07-12T05:58:15;0.20;;;0.20;;
15555;SDS011;7879;48.660;9.116;2022-07-12T06:00:42;0.20;;;0.20;;
15555;SDS011;7879;48.660;9.116;2022-07-12T06:03:09;0.20;;;0.20;;
15555;SDS011;7879;48.660;9.116;2022-07-12T06:05:37;0.20;;;0.20;;
15555;SDS011;7879;48.660;9.116;2022-07-12T06:08:03;0.20;;;0.20;;
15555;SDS011;7879;48.660;9.116;2022-07-12T06:10:30;0.20;;;0.20;;
15555;SDS011;7879;48.660;9.116;2022-07-12T06:12:57;0.20;;;0.20;;
15555;SDS011;7879;48.660;9.116;2022-07-12T06:15:24;0.20;;;0.20;;
15555;SDS011;7879;48.660;9.116;2022-07-12T06:17:58;0.20;;;0.20;;
15555;SDS011;7879;48.660;9.116;2022-07-12T06:20:25;0.20;;;0.20;;
15555;SDS011;7879;48.660;9.116;2022-07-12T06:22:52;0.20;;;0.20;;
15555;SDS011;7879;48.660;9.116;2022-07-12T06:25:20;0.20;;;0.20;;
15555;SDS011;7879;48.660;9.116;2022-07-12T06:28:07;0.20;;;0.20;;
15555;SDS011;7879;48.660;9.116;2022-07-12T06:30:34;0.10;;;0.10;;
15555;SDS011;7879;48.660;9.116;2022-07-12T06:33:01;0.10;;;0.10;;
15555;SDS011;7879;48.660;9.116;2022-07-12T06:35:27;0.20;;;0.20;;
15555;SDS011;7879;48.660;9.116;2022-07-12T06:37:54;0.20;;;0.20;;
15555;SDS011;7879;48.660;9.116;2022-07-12T06:40:21;0.13;;;0.13;;
15555;SDS011;7879;48.660;9.116;2022-07-12T06:42:48;0.20;;;0.20;;
15555;SDS011;7879;48.660;9.116;2022-07-12T06:45:16;0.20;;;0.20;;
15555;SDS011;7879;48.660;9.116;2022-07-12T06:47:44;0.20;;;0.20;;
15555;SDS011;7879;48.660;9.116;2022-07-12T06:50:11;0.20;;;0.20;;
15555;SDS011;7879;48.660;9.116;2022-07-12T06:52:38;0.10;;;0.10;;
15555;SDS011;7879;48.660;9.116;2022-07-12T06:55:04;0.13;;;0.13;;
15555;SDS011;7879;48.660;9.116;2022-07-12T06:57:32;0.10;;;0.10;;
15555;SDS011;7879;48.660;9.116;2022-07-12T07:00:00;0.10;;;0.10;;
15555;SDS011;7879;48.660;9.116;2022-07-12T07:02:27;0.10;;;0.10;;
15555;SDS011;7879;48.660;9.116;2022-07-12T07:04:54;0.20;;;0.20;;
15555;SDS011;7879;48.660;9.116;2022-07-12T07:07:21;0.10;;;0.10;;
15555;SDS011;7879;48.660;9.116;2022-07-12T07:09:47;0.20;;;0.20;;
15555;SDS011;7879;48.660;9.116;2022-07-12T07:12:14;0.20;;;0.20;;
15555;SDS011;7879;48.660;9.116;2022-07-12T07:14:41;0.20;;;0.20;;
15555;SDS011;7879;48.660;9.116;2022-07-12T07:17:08;0.10;;;0.10;;
15555;SDS011;7879;48.660;9.116;2022-07-12T07:19:36;0.10;;;0.10;;
15555;SDS011;7879;48.660;9.116;2022-07-12T07:22:03;0.10;;;0.10;;
15555;SDS011;7879;48.660;9.116;2022-07-12T07:24:30;0.10;;;0.10;;
15555;SDS011;7879;48.660;9.116;2022-07-12T07:26:57;0.10;;;0.10;;
15555;SDS011;7879;48.660;9.116;2022-07-12T07:29:24;0.10;;;0.10;;
15555;SDS011;7879;48.660;9.116;2022-07-12T07:32:09;0.10;;;0.10;;
15555;SDS011;7879;48.660;9.116;2022-07-12T07:34:36;0.10;;;0.10;;
15555;SDS011;7879;48.660;9.116;2022-07-12T07:37:03;0.10;;;0.10;;
15555;SDS011;7879;48.660;9.116;2022-07-12T07:39:31;0.10;;;0.10;;
15555;SDS011;7879;48.660;9.116;2022-07-12T07:41:58;0.10;;;0.10;;
15555;SDS011;7879;48.660;9.116;2022-07-12T07:44:24;0.10;;;0.10;;
15555;SDS011;7879;48.660;9.116;2022-07-12T07:46:58;0.10;;;0.10;;
15555;SDS011;7879;48.660;9.116;2022-07-12T07:49:26;0.10;;;0.10;;
15555;SDS011;7879;48.660;9.116;2022-07-12T07:51:52;0.10;;;0.10;;
15555;SDS011;7879;48.660;9.116;2022-07-12T07:54:19;0.10;;;0.10;;
15555;SDS011;7879;48.660;9.116;2022-07-12T07:56:46;0.10;;;0.10;;
15555;SDS011;7879;48.660;9.116;2022-07-12T07:59:13;0.10;;;0.10;;
15555;SDS011;7879;48.660;9.116;2022-07-12T08:01:40;0.10;;;0.10;;
15555;SDS011;7879;48.660;9.116;2022-07-12T08:04:12;0.10;;;0.10;;
15555;SDS011;7879;48.660;9.116;2022-07-12T08:06:40;0.10;;;0.10;;
15555;SDS011;7879;48.660;9.116;2022-07-12T08:09:07;0.10;;;0.10;;
15555;SDS011;7879;48.660;9.116;2022-07-12T08:11:38;0.10;;;0.10;;
15555;SDS011;7879;48.660;9.116;2022-07-12T08:14:06;0.10;;;0.10;;
15555;SDS011;7879;48.660;9.116;2022-07-12T08:16:33;0.10;;;0.10;;
15555;SDS011;7879;48.660;9.116;2022-07-12T08:19:01;0.10;;;0.10;;
15555;SDS011;7879;48.660;9.116;2022-07-12T08:21:29;0.10;;;0.10;;
15555;SDS011;7879;48.660;9.116;2022-07-12T08:23:56;0.10;;;0.10;;
15555;SDS011;7879;48.660;9.116;2022-07-12T08:26:23;0.10;;;0.10;;
15555;SDS011;7879;48.660;9.116;2022-07-12T08:28:50;0.10;;;0.10;;
15555;SDS011;7879;48.660;9.116;2022-07-12T08:31:18;0.00;;;0.00;;
15555;SDS011;7879;48.660;9.116;2022-07-12T08:33:45;0.00;;;0.00;;
15555;SDS011;7879;48.660;9.116;2022-07-12T08:36:12;0.00;;;0.00;;
15555;SDS011;7879;48.660;9.116;2022-07-12T08:38:39;0.00;;;0.00;;
15555;SDS011;7879;48.660;9.116;2022-07-12T08:41:11;0.00;;;0.00;;
15555;SDS011;7879;48.660;9.116;2022-07-12T08:43:39;0.00;;;0.00;;
15555;SDS011;7879;48.660;9.116;2022-07-12T08:46:08;0.00;;;0.00;;
15555;SDS011;7879;48.660;9.116;2022-07-12T08:48:40;0.00;;;0.00;;
15555;SDS011;7879;48.660;9.116;2022-07-12T08:51:11;0.00;;;0.00;;
15555;SDS011;7879;48.660;9.116;2022-07-12T08:53:39;0.00;;;0.00;;
15555;SDS011;7879;48.660;9.116;2022-07-12T08:56:07;0.00;;;0.00;;
15555;SDS011;7879;48.660;9.116;2022-07-12T09:01:40;0.00;;;0.00;;
15555;SDS011;7879;48.660;9.116;2022-07-12T09:04:10;0.00;;;0.00;;
15555;SDS011;7879;48.660;9.116;2022-07-12T09:06:38;0.00;;;0.00;;
15555;SDS011;7879;48.660;9.116;2022-07-12T09:09:04;0.00;;;0.00;;
15555;SDS011;7879;48.660;9.116;2022-07-12T09:11:38;0.00;;;0.00;;
15555;SDS011;7879;48.660;9.116;2022-07-12T09:14:06;0.00;;;0.00;;
15555;SDS011;7879;48.660;9.116;2022-07-12T09:16:33;0.00;;;0.00;;
15555;SDS011;7879;48.660;9.116;2022-07-12T09:19:14;0.00;;;0.00;;
15555;SDS011;7879;48.660;9.116;2022-07-12T09:21:49;0.00;;;0.00;;
15555;SDS011;7879;48.660;9.116;2022-07-12T09:24:18;0.00;;;0.00;;
15555;SDS011;7879;48.660;9.116;2022-07-12T09:26:46;0.00;;;0.00;;
15555;SDS011;7879;48.660;9.116;2022-07-12T09:29:13;0.00;;;0.00;;
15555;SDS011;7879;48.660;9.116;2022-07-12T09:31:41;0.00;;;0.00;;
15555;SDS011;7879;48.660;9.116;2022-07-12T09:34:28;0.00;;;0.00;;
15555;SDS011;7879;48.660;9.116;2022-07-12T09:37:14;0.00;;;0.00;;
15555;SDS011;7879;48.660;9.116;2022-07-12T09:39:41;0.00;;;0.00;;
15555;SDS011;7879;48.660;9.116;2022-07-12T09:42:08;0.00;;;0.00;;
15555;SDS011;7879;48.660;9.116;2022-07-12T09:44:39;0.00;;;0.00;;
15555;SDS011;7879;48.660;9.116;2022-07-12T09:47:08;0.00;;;0.00;;
15555;SDS011;7879;48.660;9.116;2022-07-12T09:49:42;0.00;;;0.00;;
15555;SDS011;7879;48.660;9.116;2022-07-12T09:52:10;0.00;;;0.00;;
15555;SDS011;7879;48.660;9.116;2022-07-12T09:54:42;0.00;;;0.00;;
15555;SDS011;7879;48.660;9.116;2022-07-12T09:57:13;0.00;;;0.00;;
15555;SDS011;7879;48.660;9.116;2022-07-12T09:59:46;0.00;;;0.00;;
15555;SDS011;7879;48.660;9.116;2022-07-12T10:02:15;0.00;;;0.00;;
15555;SDS011;7879;48.660;9.116;2022-07-12T10:04:42;0.00;;;0.00;;
15555;SDS011;7879;48.660;9.116;2022-07-12T10:07:10;0.00;;;0.00;;
15555;SDS011;7879;48.660;9.116;2022-07-12T10:09:45;0.00;;;0.00;;
15555;SDS011;7879;48.660;9.116;2022-07-12T10:12:15;0.00;;;0.00;;
15555;SDS011;7879;48.660;9.116;2022-07-12T10:14:44;0.00;;;0.00;;
15555;SDS011;7879;48.660;9.116;2022-07-12T10:17:11;0.00;;;0.00;;
15555;SDS011;7879;48.660;9.116;2022-07-12T10:19:39;0.00;;;0.00;;
15555;SDS011;7879;48.660;9.116;2022-07-12T10:22:07;0.00;;;0.00;;
15555;SDS011;7879;48.660;9.116;2022-07-12T10:24:47;0.00;;;0.00;;
15555;SDS011;7879;48.660;9.116;2022-07-12T10:29:51;0.00;;;0.00;;
15555;SDS011;7879;48.660;9.116;2022-07-12T10:34:59;0.00;;;0.00;;
15555;SDS011;7879;48.660;9.116;2022-07-12T10:37:26;0.00;;;0.00;;
15555;SDS011;7879;48.660;9.116;2022-07-12T10:40:12;0.00;;;0.00;;
15555;SDS011;7879;48.660;9.116;2022-07-12T10:47:59;0.00;;;0.00;;
15555;SDS011;7879;48.660;9.116;2022-07-12T10:56:20;0.00;;;0.00;;
15555;SDS011;7879;48.660;9.116;2022-07-12T10:58:45;0.00;;;0.00;;
15555;SDS011;7879;48.660;9.116;2022-07-12T11:01:15;0.00;;;0.00;;
15555;SDS011;7879;48.660;9.116;2022-07-12T11:03:51;0.00;;;0.00;;
15555;SDS011;7879;48.660;9.116;2022-07-12T11:11:24;0.00;;;0.00;;
15555;SDS011;7879;48.660;9.116;2022-07-12T11:13:56;0.00;;;0.00;;
15555;SDS011;7879;48.660;9.116;2022-07-12T11:16:24;0.00;;;0.00;;
15555;SDS011;7879;48.660;9.116;2022-07-12T11:18:52;0.00;;;0.00;;
15555;SDS011;7879;48.660;9.116;2022-07-12T11:21:20;0.00;;;0.00;;
15555;SDS011;7879;48.660;9.116;2022-07-12T11:23:47;0.00;;;0.00;;
15555;SDS011;7879;48.660;9.116;2022-07-12T11:26:15;0.00;;;0.00;;
15555;SDS011;7879;48.660;9.116;2022-07-12T11:28:43;0.00;;;0.00;;
15555;SDS011;7879;48.660;9.116;2022-07-12T11:31:12;0.00;;;0.00;;
15555;SDS011;7879;48.660;9.116;2022-07-12T11:33:41;0.00;;;0.00;;
15555;SDS011;7879;48.660;9.116;2022-07-12T11:36:10;0.00;;;0.00;;
15555;SDS011;7879;48.660;9.116;2022-07-12T11:38:39;0.00;;;0.00;;
15555;SDS011;7879;48.660;9.116;2022-07-12T11:41:10;0.00;;;0.00;;
15555;SDS011;7879;48.660;9.116;2022-07-12T11:43:38;0.00;;;0.00;;
15555;SDS011;7879;48.660;9.116;2022-07-12T11:46:06;0.00;;;0.00;;
15555;SDS011;7879;48.660;9.116;2022-07-12T11:48:35;0.00;;;0.00;;
15555;SDS011;7879;48.660;9.116;2022-07-12T11:51:04;0.00;;;0.00;;
15555;SDS011;7879;48.660;9.116;2022-07-12T11:53:33;0.00;;;0.00;;
15555;SDS011;7879;48.660;9.116;2022-07-12T11:56:01;0.00;;;0.00;;
15555;SDS011;7879;48.660;9.116;2022-07-12T11:58:29;0.00;;;0.00;;
15555;SDS011;7879;48.660;9.116;2022-07-12T12:00:58;0.00;;;0.00;;
15555;SDS011;7879;48.660;9.116;2022-07-12T12:03:26;0.00;;;0.00;;
15555;SDS011;7879;48.660;9.116;2022-07-12T12:05:54;0.00;;;0.00;;
15555;SDS011;7879;48.660;9.116;2022-07-12T12:08:26;0.00;;;0.00;;
15555;SDS011;7879;48.660;9.116;2022-07-12T12:10:57;0.00;;;0.00;;
15555;SDS011;7879;48.660;9.116;2022-07-12T12:13:26;0.00;;;0.00;;
15555;SDS011;7879;48.660;9.116;2022-07-12T12:15:54;0.00;;;0.00;;
15555;SDS011;7879;48.660;9.116;2022-07-12T12:21:09;0.00;;;0.00;;
15555;SDS011;7879;48.660;9.116;2022-07-12T12:23:40;0.00;;;0.00;;
15555;SDS011;7879;48.660;9.116;2022-07-12T12:26:09;0.00;;;0.00;;
15555;SDS011;7879;48.660;9.116;2022-07-12T12:28:51;0.00;;;0.00;;
15555;SDS011;7879;48.660;9.116;2022-07-12T12:31:20;0.00;;;0.00;;
15555;SDS011;7879;48.660;9.116;2022-07-12T12:33:49;0.00;;;0.00;;
15555;SDS011;7879;48.660;9.116;2022-07-12T12:38:49;0.00;;;0.00;;
15555;SDS011;7879;48.660;9.116;2022-07-12T12:41:17;0.00;;;0.00;;
15555;SDS011;7879;48.660;9.116;2022-07-12T12:43:45;0.00;;;0.00;;
15555;SDS011;7879;48.660;9.116;2022-07-12T12:46:20;0.00;;;0.00;;
15555;SDS011;7879;48.660;9.116;2022-07-12T12:48:47;0.00;;;0.00;;
15555;SDS011;7879;48.660;9.116;2022-07-12T12:51:15;0.00;;;0.00;;
15555;SDS011;7879;48.660;9.116;2022-07-12T12:53:43;0.00;;;0.00;;
15555;SDS011;7879;48.660;9.116;2022-07-12T12:56:11;0.00;;;0.00;;
15555;SDS011;7879;48.660;9.116;2022-07-12T12:58:40;0.00;;;0.00;;
15555;SDS011;7879;48.660;9.116;2022-07-12T13:01:07;0.00;;;0.00;;
15555;SDS011;7879;48.660;9.116;2022-07-12T13:03:35;0.00;;;0.00;;
15555;SDS011;7879;48.660;9.116;2022-07-12T13:06:02;0.00;;;0.00;;
15555;SDS011;7879;48.660;9.116;2022-07-12T13:08:31;0.00;;;0.00;;
15555;SDS011;7879;48.660;9.116;2022-07-12T13:10:59;0.00;;;0.00;;
15555;SDS011;7879;48.660;9.116;2022-07-12T13:13:44;0.00;;;0.00;;
15555;SDS011;7879;48.660;9.116;2022-07-12T13:16:11;0.00;;;0.00;;
15555;SDS011;7879;48.660;9.116;2022-07-12T13:18:38;0.00;;;0.00;;
15555;SDS011;7879;48.660;9.116;2022-07-12T13:21:06;0.00;;;0.00;;
15555;SDS011;7879;48.660;9.116;2022-07-12T13:23:32;0.00;;;0.00;;
15555;SDS011;7879;48.660;9.116;2022-07-12T13:25:59;0.00;;;0.00;;
15555;SDS011;7879;48.660;9.116;2022-07-12T13:28:29;0.00;;;0.00;;
15555;SDS011;7879;48.660;9.116;2022-07-12T13:30:58;0.00;;;0.00;;
15555;SDS011;7879;48.660;9.116;2022-07-12T13:33:26;0.00;;;0.00;;
15555;SDS011;7879;48.660;9.116;2022-07-12T13:35:53;0.00;;;0.00;;
15555;SDS011;7879;48.660;9.116;2022-07-12T13:38:20;0.00;;;0.00;;
15555;SDS011;7879;48.660;9.116;2022-07-12T13:40:47;0.00;;;0.00;;
15555;SDS011;7879;48.660;9.116;2022-07-12T13:43:16;0.00;;;0.00;;
15555;SDS011;7879;48.660;9.116;2022-07-12T13:45:43;0.00;;;0.00;;
15555;SDS011;7879;48.660;9.116;2022-07-12T13:48:12;0.00;;;0.00;;
15555;SDS011;7879;48.660;9.116;2022-07-12T13:50:39;0.00;;;0.00;;
15555;SDS011;7879;48.660;9.116;2022-07-12T13:53:08;0.00;;;0.00;;
15555;SDS011;7879;48.660;9.116;2022-07-12T13:55:35;0.00;;;0.00;;
15555;SDS011;7879;48.660;9.116;2022-07-12T13:58:03;0.00;;;0.00;;
15555;SDS011;7879;48.660;9.116;2022-07-12T14:00:33;0.00;;;0.00;;
15555;SDS011;7879;48.660;9.116;2022-07-12T14:03:02;0.00;;;0.00;;
15555;SDS011;7879;48.660;9.116;2022-07-12T14:05:31;0.00;;;0.00;;
15555;SDS011;7879;48.660;9.116;2022-07-12T14:07:58;0.00;;;0.00;;
15555;SDS011;7879;48.660;9.116;2022-07-12T14:10:27;0.00;;;0.00;;
15555;SDS011;7879;48.660;9.116;2022-07-12T14:12:54;0.00;;;0.00;;
15555;SDS011;7879;48.660;9.116;2022-07-12T14:15:22;0.00;;;0.00;;
15555;SDS011;7879;48.660;9.116;2022-07-12T14:18:05;0.00;;;0.00;;
15555;SDS011;7879;48.660;9.116;2022-07-12T14:20:34;0.00;;;0.00;;
15555;SDS011;7879;48.660;9.116;2022-07-12T14:23:03;0.00;;;0.00;;
15555;SDS011;7879;48.660;9.116;2022-07-12T14:25:35;0.00;;;0.00;;
15555;SDS011;7879;48.660;9.116;2022-07-12T14:28:03;0.00;;;0.00;;
15555;SDS011;7879;48.660;9.116;2022-07-12T14:30:30;0.00;;;0.00;;
15555;SDS011;7879;48.660;9.116;2022-07-12T14:32:57;0.00;;;0.00;;
15555;SDS011;7879;48.660;9.116;2022-07-12T14:35:25;0.00;;;0.00;;
15555;SDS011;7879;48.660;9.116;2022-07-12T14:37:52;0.00;;;0.00;;
15555;SDS011;7879;48.660;9.116;2022-07-12T14:40:19;0.00;;;0.00;;
15555;SDS011;7879;48.660;9.116;2022-07-12T14:42:46;0.00;;;0.00;;
15555;SDS011;7879;48.660;9.116;2022-07-12T14:45:13;0.00;;;0.00;;
15555;SDS011;7879;48.660;9.116;2022-07-12T14:47:41;0.00;;;0.00;;
15555;SDS011;7879;48.660;9.116;2022-07-12T14:50:08;0.00;;;0.00;;
15555;SDS011;7879;48.660;9.116;2022-07-12T14:52:36;0.00;;;0.00;;
15555;SDS011;7879;48.660;9.116;2022-07-12T14:55:03;0.00;;;0.00;;
15555;SDS011;7879;48.660;9.116;2022-07-12T14:57:30;0.00;;;0.00;;
15555;SDS011;7879;48.660;9.116;2022-07-12T14:59:57;0.00;;;0.00;;
15555;SDS011;7879;48.660;9.116;2022-07-12T15:02:24;0.00;;;0.00;;
15555;SDS011;7879;48.660;9.116;2022-07-12T15:04:52;0.00;;;0.00;;
15555;SDS011;7879;48.660;9.116;2022-07-12T15:07:19;0.00;;;0.00;;
15555;SDS011;7879;48.660;9.116;2022-07-12T15:09:47;0.00;;;0.00;;
15555;SDS011;7879;48.660;9.116;2022-07-12T15:12:14;0.00;;;0.00;;
15555;SDS011;7879;48.660;9.116;2022-07-12T15:14:41;0.00;;;0.00;;
15555;SDS011;7879;48.660;9.116;2022-07-12T15:17:13;0.00;;;0.00;;
15555;SDS011;7879;48.660;9.116;2022-07-12T15:19:45;0.00;;;0.00;;
15555;SDS011;7879;48.660;9.116;2022-07-12T15:22:13;0.00;;;0.00;;
15555;SDS011;7879;48.660;9.116;2022-07-12T15:24:42;0.00;;;0.00;;
15555;SDS011;7879;48.660;9.116;2022-07-12T15:27:13;0.00;;;0.00;;
15555;SDS011;7879;48.660;9.116;2022-07-12T15:29:40;0.00;;;0.00;;
15555;SDS011;7879;48.660;9.116;2022-07-12T15:32:08;0.00;;;0.00;;
15555;SDS011;7879;48.660;9.116;2022-07-12T15:34:39;0.00;;;0.00;;
15555;SDS011;7879;48.660;9.116;2022-07-12T15:37:06;0.00;;;0.00;;